ヨハネスブルグ の空港の天気 - METARとTAF

ヨハネスブルグ/O.R.タンボ国際空港 ( FAOR / JNB ) - 南アフリカ ヨハネスブルグ
飛行場実況気象(Metar)
観測時間07/18 14:00 SAST (07/18 12:00 UTC)
風向・風速東北東 4m/s
視程10km以上
天気現象
なし
気温13℃
湿度33%
気圧1034hPa
METARFAOR 181200Z 07008KT 030V110 CAVOK 13/M03 Q1034 NOSIG
過去の天気等 Google飛行場航空写真 Wunderground天気予報

過去48時間のMETAR

飛行場予報(TAF)
発表時間: 7/18 12:00 SAST (7/18 10:00 UTC)
予報対象時間: 18日14時 SAST ~ 19日20時 SAST
風向・風速北北東 4m/s
視程10km以上
なし
19日5時 SAST ~ 19日8時 SAST に 確率 30% で一時的に
視程1500m
天気現象散在した霧
なし
19日12時 SAST ~ 19日14時 SAST に徐々に
風向・風速不定 2m/s
TAF FAOR 181000Z 1812/1918 03007KT CAVOK
PROB30 TEMPO 1903/1906 1500 BCFG NSC
BECMG 1910/1912 VRB03KT TX14/1912Z TN02/1904Z